Time;durP1;ratioP1;P1;durP2;ratioP2;P2;SDS_P1;SDS_P2;PMS_P1;PMS_P2;Temp;Humidity;BMP_temperature;BMP_pressure;BME280_temperature;BME280_humidity;BME280_pressure;Samples;Min_cycle;Max_cycle;Signal;HPM_P1;HPM_P2
2023/05/24 00:01:06;;;;;;;;;5.00;3.33;;;;;13.02;54.27;101896.25;4981685;28;45420;-71
2023/05/24 00:03:33;;;;;;;;;3.67;2.33;;;;;13.08;54.11;101917.06;4995344;28;45723;-70
2023/05/24 00:05:59;;;;;;;;;4.33;4.33;;;;;12.89;54.26;101882.25;4995909;28;45277;-70
2023/05/24 00:08:24;;;;;;;;;6.33;3.33;;;;;12.94;54.99;101916.53;4987925;28;45167;-71
2023/05/24 00:10:49;;;;;;;;;8.00;4.33;;;;;12.80;54.83;101881.19;4995395;28;45242;-71
2023/05/24 00:13:15;;;;;;;;;11.33;5.33;;;;;12.76;54.76;101898.44;4987901;28;45663;-70
2023/05/24 00:15:40;;;;;;;;;4.67;4.67;;;;;12.80;55.19;101896.34;4996350;28;45479;-71
2023/05/24 00:18:05;;;;;;;;;8.00;5.00;;;;;12.73;56.13;101896.03;4986326;28;45484;-70
2023/05/24 00:20:31;;;;;;;;;7.33;4.67;;;;;12.58;56.03;101889.31;4985160;28;45211;-70
2023/05/24 00:22:56;;;;;;;;;9.00;5.00;;;;;12.61;56.70;101896.22;4985066;28;46227;-72
2023/05/24 00:25:21;;;;;;;;;5.67;4.33;;;;;12.57;56.16;101884.13;4976909;28;48658;-71
2023/05/24 00:27:47;;;;;;;;;6.67;5.67;;;;;12.25;56.45;101839.69;4973627;28;45265;-71
2023/05/24 00:30:12;;;;;;;;;5.00;5.00;;;;;12.55;56.46;101883.41;4978805;28;45466;-69
2023/05/24 00:32:37;;;;;;;;;5.00;5.00;;;;;12.56;56.41;101883.28;4966407;28;47949;-69
2023/05/24 00:35:03;;;;;;;;;5.00;4.00;;;;;12.63;56.38;101880.97;4975982;28;46293;-70
2023/05/24 00:37:29;;;;;;;;;5.33;5.33;;;;;12.62;56.55;101880.13;4966952;28;45518;-70
2023/05/24 00:39:54;;;;;;;;;8.33;4.67;;;;;12.53;56.50;101867.53;4967058;28;45510;-71
2023/05/24 00:42:19;;;;;;;;;5.67;4.33;;;;;12.47;56.58;101858.22;4976739;28;46803;-71
2023/05/24 00:44:45;;;;;;;;;6.33;4.00;;;;;12.62;56.48;101855.25;4976754;28;45385;-69
2023/05/24 00:47:10;;;;;;;;;5.00;5.00;;;;;12.75;56.40;101872.75;4983443;28;59139;-69
2023/05/24 00:49:36;;;;;;;;;5.33;3.67;;;;;12.69;56.77;101867.09;4984823;28;45503;-70
2023/05/24 00:52:01;;;;;;;;;5.67;4.67;;;;;12.59;56.68;101855.50;4984213;28;49920;-68
2023/05/24 00:54:28;;;;;;;;;5.00;5.00;;;;;12.48;57.24;101856.41;4984143;28;45428;-72
2023/05/24 00:56:55;;;;;;;;;5.00;5.00;;;;;12.36;56.96;101836.94;4987632;28;45511;-70
2023/05/24 00:59:22;;;;;;;;;5.00;4.33;;;;;12.47;56.82;101846.72;4996004;28;45203;-70
2023/05/24 01:01:47;;;;;;;;;5.00;4.33;;;;;12.55;56.88;101860.25;4977394;28;47115;-70
2023/05/24 01:04:13;;;;;;;;;6.33;6.33;;;;;12.53;57.05;101856.00;4976453;28;45505;-70
2023/05/24 01:07:09;;;;;;;;;7.00;4.67;;;;;12.45;57.14;101852.19;4976692;28;45456;-72
2023/05/24 01:10:12;;;;;;;;;9.33;6.67;;;;;12.55;57.48;101851.41;4999215;28;45529;-71
2023/05/24 01:12:47;;;;;;;;;6.00;6.00;;;;;12.50;57.10;101857.13;4983131;28;45919;-72
2023/05/24 01:15:25;;;;;;;;;5.00;5.00;;;;;12.38;57.89;101861.66;4973451;28;46039;-71
2023/05/24 01:18:14;;;;;;;;;10.00;4.00;;;;;11.99;57.54;101790.34;4997913;28;45313;-70
2023/05/24 01:20:41;;;;;;;;;7.00;4.33;;;;;12.32;58.02;101851.50;4962297;28;45573;-71
2023/05/24 01:23:29;;;;;;;;;5.33;5.00;;;;;12.38;57.86;101868.81;4980003;28;45877;-71
2023/05/24 01:26:08;;;;;;;;;10.00;5.33;;;;;12.39;57.65;101881.16;4969508;28;45476;-70
2023/05/24 01:28:34;;;;;;;;;6.00;5.00;;;;;12.36;58.07;101865.44;4973142;28;46068;-68
2023/05/24 01:31:01;;;;;;;;;7.33;7.33;;;;;12.29;57.84;101849.09;4978444;28;45541;-70
2023/05/24 01:33:26;;;;;;;;;5.67;5.00;;;;;12.32;58.32;101858.66;4986757;28;46358;-68
2023/05/24 01:35:52;;;;;;;;;8.33;5.00;;;;;12.40;57.96;101875.72;4987609;28;45197;-71
2023/05/24 01:38:17;;;;;;;;;9.33;7.00;;;;;12.42;57.60;101859.59;4961566;28;51120;-70
2023/05/24 01:40:49;;;;;;;;;5.00;4.33;;;;;12.43;57.23;101867.47;4983764;28;45504;-69
2023/05/24 01:43:22;;;;;;;;;6.00;6.00;;;;;12.05;57.78;101797.84;4994952;28;45530;-71
2023/05/24 01:46:14;;;;;;;;;7.33;4.67;;;;;12.37;58.10;101872.44;4981592;28;45365;-70
2023/05/24 01:48:58;;;;;;;;;6.00;5.00;;;;;12.44;57.79;101882.50;4987388;28;45485;-69
2023/05/24 01:51:28;;;;;;;;;8.00;7.00;;;;;12.21;58.22;101840.88;4979526;28;45507;-74
2023/05/24 01:53:57;;;;;;;;;7.67;6.00;;;;;12.22;58.67;101855.94;4994783;28;45691;-69
2023/05/24 01:56:26;;;;;;;;;6.67;6.33;;;;;12.30;58.72;101861.47;4987322;28;45245;-70
2023/05/24 01:58:53;;;;;;;;;9.33;7.00;;;;;12.10;58.70;101848.94;4986916;28;45324;-71
2023/05/24 02:01:19;;;;;;;;;5.33;5.33;;;;;12.08;59.62;101873.06;4979413;28;45467;-72
2023/05/24 02:03:44;;;;;;;;;6.33;5.33;;;;;11.53;59.60;101796.75;4986787;28;46466;-72
2023/05/24 02:06:10;;;;;;;;;10.00;7.33;;;;;11.95;59.01;101867.03;4958342;28;45470;-70
2023/05/24 02:08:35;;;;;;;;;6.67;4.33;;;;;11.63;59.92;101805.69;4990915;28;45278;-69
2023/05/24 02:11:01;;;;;;;;;5.67;5.67;;;;;12.01;59.45;101881.66;4987847;28;45315;-70
2023/05/24 02:13:26;;;;;;;;;5.33;5.00;;;;;12.00;59.59;101890.63;4986633;28;46318;-70
2023/05/24 02:15:52;;;;;;;;;5.33;5.33;;;;;11.87;59.57;101857.00;4987271;28;45562;-71
2023/05/24 02:18:18;;;;;;;;;9.67;7.00;;;;;12.06;59.55;101879.50;4986282;28;45230;-70
2023/05/24 02:20:43;;;;;;;;;6.67;5.67;;;;;11.58;60.08;101805.22;4986521;28;45657;-69
2023/05/24 02:23:09;;;;;;;;;6.67;6.67;;;;;12.01;59.44;101868.34;4989078;28;45621;-68
2023/05/24 02:25:34;;;;;;;;;6.33;5.33;;;;;11.93;59.75;101841.50;4997182;28;45428;-69
2023/05/24 02:28:00;;;;;;;;;6.33;6.33;;;;;12.10;59.84;101867.59;4997542;28;45309;-70
2023/05/24 02:30:25;;;;;;;;;7.33;6.67;;;;;11.69;60.08;101821.19;4972262;28;45607;-71
2023/05/24 02:32:51;;;;;;;;;6.67;5.00;;;;;11.90;60.17;101869.22;4981883;28;46307;-71
2023/05/24 02:35:16;;;;;;;;;7.33;6.00;;;;;11.76;60.17;101840.16;4971468;28;46376;-71
2023/05/24 02:37:42;;;;;;;;;7.00;5.33;;;;;11.90;60.43;101868.38;4997818;28;45396;-71
2023/05/24 02:40:08;;;;;;;;;8.00;7.00;;;;;11.77;60.88;101857.84;4972635;28;45370;-71
2023/05/24 02:42:33;;;;;;;;;5.33;4.00;;;;;11.61;60.22;101818.28;4984734;28;45192;-70
2023/05/24 02:44:59;;;;;;;;;6.00;5.00;;;;;11.79;60.32;101854.09;4986429;28;45283;-69
2023/05/24 02:47:25;;;;;;;;;5.00;4.00;;;;;11.73;60.63;101849.25;4985838;28;57487;-70
2023/05/24 02:49:52;;;;;;;;;10.67;7.00;;;;;11.73;61.11;101859.06;4985690;28;45302;-70
2023/05/24 02:52:20;;;;;;;;;5.00;5.00;;;;;11.77;61.11;101856.03;4989035;28;46223;-72
2023/05/24 02:54:46;;;;;;;;;8.00;7.00;;;;;11.40;60.71;101785.38;4984217;28;45263;-69
2023/05/24 02:57:11;;;;;;;;;11.33;8.67;;;;;11.83;60.84;101858.25;4994251;28;45334;-69
2023/05/24 02:59:36;;;;;;;;;8.33;8.33;;;;;11.79;60.63;101855.94;4997647;28;45421;-71
2023/05/24 03:02:02;;;;;;;;;9.00;5.00;;;;;11.74;61.19;101850.09;4989301;28;46233;-68
2023/05/24 03:04:27;;;;;;;;;8.33;7.67;;;;;11.46;60.85;101795.56;4986468;28;45294;-72
2023/05/24 03:06:53;;;;;;;;;8.33;7.00;;;;;11.78;61.14;101844.41;4990863;28;60092;-69
2023/05/24 03:09:18;;;;;;;;;8.67;7.67;;;;;11.69;60.61;101813.19;4988419;28;45445;-70
2023/05/24 03:11:44;;;;;;;;;5.67;5.33;;;;;11.80;61.01;101845.13;4979159;28;46300;-68
2023/05/24 03:14:09;;;;;;;;;16.33;9.33;;;;;11.80;60.30;101847.81;4989363;28;45288;-70
2023/05/24 03:16:35;;;;;;;;;10.67;8.00;;;;;11.68;61.01;101837.28;4995912;28;45501;-71
2023/05/24 03:19:01;;;;;;;;;9.33;6.00;;;;;11.74;60.76;101852.75;4996970;28;45476;-69
2023/05/24 03:21:27;;;;;;;;;9.00;6.00;;;;;11.41;61.08;101792.41;4995666;28;46382;-70
2023/05/24 03:23:52;;;;;;;;;8.33;8.33;;;;;11.72;61.32;101842.22;4957025;28;45417;-69
2023/05/24 03:26:19;;;;;;;;;10.00;7.33;;;;;11.26;61.12;101770.53;4974625;28;45385;-69
2023/05/24 03:28:44;;;;;;;;;8.00;7.00;;;;;11.59;61.23;101838.84;4968479;28;45484;-72
2023/05/24 03:31:11;;;;;;;;;8.33;5.67;;;;;11.54;62.03;101831.25;4965062;28;48626;-71
2023/05/24 03:33:36;;;;;;;;;8.00;6.00;;;;;11.55;62.11;101848.06;4970411;28;46279;-71
2023/05/24 03:36:03;;;;;;;;;6.33;6.00;;;;;11.43;62.35;101839.28;4983713;28;45524;-71
2023/05/24 03:38:28;;;;;;;;;10.33;7.00;;;;;11.39;62.42;101855.59;4993891;28;45319;-69
2023/05/24 03:40:53;;;;;;;;;13.67;7.00;;;;;11.21;62.77;101824.16;4992623;28;46441;-70
2023/05/24 03:43:20;;;;;;;;;8.33;6.67;;;;;11.38;62.38;101832.59;4984145;28;45372;-71
2023/05/24 03:45:45;;;;;;;;;8.00;7.67;;;;;11.33;62.41;101854.28;4988278;28;45503;-70
2023/05/24 03:48:10;;;;;;;;;10.67;9.33;;;;;11.23;62.42;101830.22;4996513;28;45459;-70
2023/05/24 03:50:36;;;;;;;;;7.33;7.00;;;;;11.37;62.64;101855.72;4987971;28;46118;-71
2023/05/24 03:53:01;;;;;;;;;13.67;10.00;;;;;11.39;62.44;101855.59;4977182;28;45452;-70
2023/05/24 03:55:26;;;;;;;;;9.00;7.00;;;;;11.33;62.75;101853.44;4975002;28;45664;-69
2023/05/24 03:57:52;;;;;;;;;9.33;8.33;;;;;11.10;62.65;101816.16;4987673;28;45562;-69
2023/05/24 04:00:17;;;;;;;;;9.67;7.00;;;;;11.26;62.96;101843.28;4990186;28;45622;-70
2023/05/24 04:02:43;;;;;;;;;6.67;6.67;;;;;11.25;62.49;101862.88;4985630;28;45404;-70
2023/05/24 04:05:09;;;;;;;;;9.00;8.67;;;;;11.24;62.98;101866.50;4994978;28;45456;-69
2023/05/24 04:07:38;;;;;;;;;9.33;7.00;;;;;11.28;62.91;101870.63;4996599;28;45291;-70
2023/05/24 04:10:04;;;;;;;;;10.00;7.33;;;;;11.32;62.89;101851.72;4992287;28;46622;-69
2023/05/24 04:12:30;;;;;;;;;10.67;9.00;;;;;11.11;61.95;101809.88;4984599;28;45355;-71
2023/05/24 04:14:56;;;;;;;;;8.00;8.00;;;;;11.34;62.83;101861.28;4984283;28;45870;-70
2023/05/24 04:17:23;;;;;;;;;10.00;8.00;;;;;11.41;62.00;101869.63;4989483;28;45207;-70
2023/05/24 04:19:49;;;;;;;;;6.67;6.67;;;;;11.52;62.19;101867.81;4996104;28;46660;-72
2023/05/24 04:22:14;;;;;;;;;8.67;7.00;;;;;11.50;61.80;101847.59;4995454;28;45623;-69
2023/05/24 04:24:40;;;;;;;;;10.67;7.33;;;;;11.54;61.70;101849.03;4988536;28;45357;-69
2023/05/24 04:27:06;;;;;;;;;7.33;6.33;;;;;11.54;61.20;101851.72;4978595;28;45314;-70
2023/05/24 04:29:32;;;;;;;;;10.00;8.00;;;;;11.64;61.29;101863.34;4977571;28;48384;-70
2023/05/24 04:31:59;;;;;;;;;10.00;7.00;;;;;11.66;61.57;101882.69;4987043;28;45357;-69
2023/05/24 04:34:24;;;;;;;;;11.00;8.00;;;;;11.60;61.12;101880.50;4991266;28;45262;-68
2023/05/24 04:36:51;;;;;;;;;6.00;5.00;;;;;11.44;61.36;101843.63;4983730;28;45531;-70
2023/05/24 04:39:17;;;;;;;;;7.67;7.00;;;;;11.38;61.54;101860.06;4966574;28;47655;-68
2023/05/24 04:41:44;;;;;;;;;5.00;5.00;;;;;11.60;61.20;101893.81;4982340;28;45395;-71
2023/05/24 04:44:09;;;;;;;;;8.00;6.67;;;;;11.64;60.86;101891.78;4989769;28;45546;-68
2023/05/24 04:46:34;;;;;;;;;5.00;2.67;;;;;11.61;60.74;101906.16;4979984;28;45424;-69
2023/05/24 04:49:01;;;;;;;;;10.00;8.33;;;;;11.48;61.18;101894.81;4987509;28;45886;-71
2023/05/24 04:51:26;;;;;;;;;10.00;9.00;;;;;11.64;61.50;101902.44;4975365;28;45379;-70
2023/05/24 04:53:51;;;;;;;;;13.67;10.33;;;;;11.61;60.87;101894.66;4966777;28;45507;-70
2023/05/24 04:56:18;;;;;;;;;9.67;6.00;;;;;11.21;60.88;101808.19;4987579;28;45413;-69
2023/05/24 04:58:43;;;;;;;;;11.33;7.00;;;;;11.83;60.39;101898.22;4986986;28;45708;-71
2023/05/24 05:01:09;;;;;;;;;11.67;8.67;;;;;11.90;60.61;101909.22;4987867;28;45383;-70
2023/05/24 05:03:34;;;;;;;;;11.00;9.00;;;;;11.85;59.79;101885.59;4977445;28;45518;-71
2023/05/24 05:05:59;;;;;;;;;9.00;7.00;;;;;11.67;59.87;101863.06;4962399;28;45448;-71
2023/05/24 05:08:25;;;;;;;;;11.33;9.33;;;;;11.87;60.24;101893.47;4979446;28;51863;-70
2023/05/24 05:10:50;;;;;;;;;8.00;8.00;;;;;12.00;59.84;101906.63;4992857;28;45177;-71
2023/05/24 05:13:15;;;;;;;;;4.33;4.33;;;;;11.60;59.45;101824.56;4989904;28;45403;-71
2023/05/24 05:15:41;;;;;;;;;6.00;6.00;;;;;11.93;59.32;101858.31;4983555;28;45255;-70
2023/05/24 05:18:07;;;;;;;;;8.00;7.33;;;;;12.32;59.39;101902.19;4983347;28;46159;-73
2023/05/24 05:20:32;;;;;;;;;4.33;2.33;;;;;11.95;58.77;101818.22;4961948;28;45277;-72
2023/05/24 05:22:58;;;;;;;;;9.33;9.33;;;;;12.37;58.98;101883.13;4987401;28;45463;-70
2023/05/24 05:25:23;;;;;;;;;9.67;8.00;;;;;12.53;58.81;101896.88;4987432;28;48723;-69
2023/05/24 05:27:48;;;;;;;;;5.67;5.67;;;;;12.60;58.26;101894.53;4990296;28;45860;-70
2023/05/24 05:30:14;;;;;;;;;5.00;5.00;;;;;12.46;58.30;101893.03;4990391;28;46150;-71
2023/05/24 05:32:39;;;;;;;;;4.67;4.33;;;;;12.32;57.92;101858.66;4989115;28;45476;-71
2023/05/24 05:35:05;;;;;;;;;7.00;7.00;;;;;12.60;57.94;101894.53;4984896;28;45535;-69
2023/05/24 05:37:30;;;;;;;;;9.67;7.67;;;;;12.59;58.21;101874.16;4979783;28;45663;-72
2023/05/24 05:39:56;;;;;;;;;9.00;6.67;;;;;12.53;57.44;101861.34;4986026;28;45451;-71
2023/05/24 05:42:21;;;;;;;;;10.67;8.00;;;;;12.45;58.27;101876.19;4994897;28;45752;-71
2023/05/24 05:44:47;;;;;;;;;6.00;6.00;;;;;12.48;58.41;101889.25;4990152;28;45667;-72
2023/05/24 05:47:12;;;;;;;;;7.33;5.00;;;;;12.62;58.22;101903.28;4983679;28;55229;-70
2023/05/24 05:49:37;;;;;;;;;10.00;9.00;;;;;12.43;57.73;101862.13;4978790;28;45471;-72
2023/05/24 05:52:06;;;;;;;;;7.67;6.33;;;;;12.76;57.49;101898.44;4983590;28;45313;-71
2023/05/24 05:54:31;;;;;;;;;9.00;6.00;;;;;12.67;57.14;101875.22;4988041;28;45264;-71
2023/05/24 05:56:56;;;;;;;;;7.33;6.00;;;;;12.72;57.41;101877.50;4982127;28;45426;-71
2023/05/24 05:59:22;;;;;;;;;12.67;8.33;;;;;13.00;56.88;101902.66;4981868;28;46375;-73
2023/05/24 06:01:48;;;;;;;;;8.33;8.33;;;;;12.82;56.48;101837.53;4978204;28;45350;-73
2023/05/24 06:04:17;;;;;;;;;8.33;6.33;;;;;13.61;55.80;101905.38;4978693;28;45387;-71
2023/05/24 06:06:48;;;;;;;;;8.00;7.00;;;;;14.02;54.17;101901.72;4981880;28;46585;-73
2023/05/24 06:09:14;;;;;;;;;9.00;6.33;;;;;14.47;53.07;101902.06;4959900;28;46108;-72
2023/05/24 06:11:43;;;;;;;;;12.33;9.00;;;;;14.87;52.19;101909.91;4985845;28;45282;-69
2023/05/24 06:14:10;;;;;;;;;9.33;7.33;;;;;15.01;50.85;101867.59;4960853;28;45404;-72
2023/05/24 06:16:40;;;;;;;;;9.33;5.33;;;;;15.73;49.88;101899.06;4978264;28;46040;-71
2023/05/24 06:19:06;;;;;;;;;9.00;7.67;;;;;16.18;48.96;101903.56;4964794;28;45512;-71
2023/05/24 06:21:32;;;;;;;;;10.33;8.67;;;;;16.51;47.73;101896.69;4988119;28;45487;-70
2023/05/24 06:23:58;;;;;;;;;8.00;8.00;;;;;16.81;46.83;101908.84;4981284;28;45508;-71
2023/05/24 06:26:24;;;;;;;;;7.33;6.67;;;;;16.88;45.28;101869.66;4983637;28;45886;-72
2023/05/24 06:28:50;;;;;;;;;7.33;5.00;;;;;17.33;45.72;101918.63;4968947;28;46141;-71
2023/05/24 06:31:15;;;;;;;;;8.33;6.33;;;;;17.61;44.54;101921.09;4989478;28;45501;-71
2023/05/24 06:33:41;;;;;;;;;9.00;8.67;;;;;17.81;44.11;101919.88;4964905;28;45420;-71
2023/05/24 06:36:06;;;;;;;;;6.33;6.33;;;;;18.22;43.67;101917.31;4988219;28;45538;-72
2023/05/24 06:38:31;;;;;;;;;5.67;5.33;;;;;18.57;43.15;101926.09;4997050;28;45397;-70
2023/05/24 06:40:57;;;;;;;;;6.67;6.33;;;;;18.84;41.90;101917.72;4987282;28;45381;-71
2023/05/24 06:43:22;;;;;;;;;10.00;7.00;;;;;19.00;41.54;101920.38;4978877;28;45437;-72
2023/05/24 06:45:48;;;;;;;;;7.67;7.67;;;;;19.14;40.84;101913.47;4991242;28;46112;-68
2023/05/24 06:48:13;;;;;;;;;5.33;5.33;;;;;19.09;40.88;101878.94;4971854;28;45491;-69
2023/05/24 06:50:40;;;;;;;;;8.33;5.00;;;;;19.30;40.02;101909.88;4986645;28;52919;-73
2023/05/24 06:53:05;;;;;;;;;8.67;6.33;;;;;19.60;39.86;101919.06;4966743;28;45597;-72
2023/05/24 06:55:30;;;;;;;;;10.33;8.33;;;;;19.61;39.94;101929.69;4965823;28;46031;-71
2023/05/24 06:57:56;;;;;;;;;8.33;6.00;;;;;19.65;39.39;101922.13;4977043;28;53980;-71
2023/05/24 07:00:21;;;;;;;;;10.00;7.00;;;;;19.42;38.93;101917.44;4974599;28;45414;-71
2023/05/24 07:02:47;;;;;;;;;7.33;4.67;;;;;19.62;39.45;101917.03;4976746;28;45349;-71
2023/05/24 07:05:12;;;;;;;;;7.00;5.00;;;;;19.62;38.83;101917.91;4961548;28;47337;-71
2023/05/24 07:07:38;;;;;;;;;6.33;5.00;;;;;19.65;38.45;101884.34;4982334;28;45580;-71
2023/05/24 07:10:09;;;;;;;;;11.33;10.00;;;;;20.03;38.48;101921.25;4976791;28;46314;-72
2023/05/24 07:12:35;;;;;;;;;11.67;7.00;;;;;20.30;38.25;101924.47;4977105;28;45559;-72
2023/05/24 07:15:00;;;;;;;;;7.00;5.67;;;;;20.65;37.69;101920.34;4976595;28;46391;-72
2023/05/24 07:17:26;;;;;;;;;9.67;7.33;;;;;21.01;37.25;101912.41;4983504;28;45329;-70
2023/05/24 07:19:51;;;;;;;;;6.33;4.00;;;;;21.27;36.04;101917.41;4967854;28;45333;-71
2023/05/24 07:22:16;;;;;;;;;7.67;6.33;;;;;21.35;35.67;101903.78;4985848;28;45423;-71
2023/05/24 07:24:42;;;;;;;;;6.00;4.67;;;;;21.16;35.46;101928.66;4981282;28;45541;-70
2023/05/24 07:27:08;;;;;;;;;6.00;4.00;;;;;21.15;35.85;101925.09;4959161;28;45515;-71
2023/05/24 07:29:33;;;;;;;;;6.00;5.00;;;;;21.63;35.27;101922.94;4963643;28;45391;-72
2023/05/24 07:31:59;;;;;;;;;8.33;7.00;;;;;21.66;34.63;101873.00;4988600;28;45337;-72
2023/05/24 07:34:28;;;;;;;;;5.33;5.33;;;;;21.56;34.16;101876.81;4977495;28;48112;-73
2023/05/24 07:36:59;;;;;;;;;10.33;7.00;;;;;22.02;34.45;101919.84;4962188;28;45692;-72
2023/05/24 07:39:26;;;;;;;;;7.00;5.00;;;;;22.52;34.04;101926.25;4970782;28;45365;-72
2023/05/24 07:41:52;;;;;;;;;6.00;6.00;;;;;22.98;32.98;101931.25;4979840;28;45521;-71
2023/05/24 07:44:18;;;;;;;;;7.33;7.00;;;;;23.17;32.14;101914.28;4958995;28;48007;-69
2023/05/24 07:46:43;;;;;;;;;5.67;5.00;;;;;23.46;32.12;101915.09;4980779;28;45386;-72
2023/05/24 07:49:08;;;;;;;;;8.00;6.00;;;;;23.74;32.09;101929.47;4992495;28;45409;-71
2023/05/24 07:51:34;;;;;;;;;8.67;6.67;;;;;23.84;31.09;101921.81;4980993;28;45210;-71
2023/05/24 07:53:59;;;;;;;;;8.33;7.33;;;;;23.52;31.15;101868.16;4984715;28;45553;-71
2023/05/24 07:56:25;;;;;;;;;8.00;6.67;;;;;23.43;31.55;101918.22;4972443;28;45654;-71
2023/05/24 07:58:50;;;;;;;;;7.33;7.00;;;;;23.49;31.41;101939.13;4985723;28;45460;-72
2023/05/24 08:01:19;;;;;;;;;7.67;6.00;;;;;23.63;31.99;101938.22;4973824;28;45532;-69
2023/05/24 08:03:45;;;;;;;;;10.00;8.67;;;;;23.78;31.35;101932.63;4979563;28;46051;-70
2023/05/24 08:06:11;;;;;;;;;8.67;7.00;;;;;23.96;30.79;101930.19;4980084;28;45584;-71
2023/05/24 08:08:37;;;;;;;;;5.33;4.33;;;;;23.76;30.70;101913.81;4982091;28;45140;-70
2023/05/24 08:11:03;;;;;;;;;6.00;4.00;;;;;23.78;30.54;101928.03;4986359;28;45428;-71
2023/05/24 08:13:28;;;;;;;;;8.00;8.00;;;;;23.35;30.82;101909.19;4970787;28;48461;-71
2023/05/24 08:15:53;;;;;;;;;8.67;6.00;;;;;23.34;31.26;101915.66;4967843;28;47972;-70
2023/05/24 08:18:18;;;;;;;;;8.00;6.67;;;;;23.69;31.07;101926.53;4971072;28;45394;-69
2023/05/24 08:20:44;;;;;;;;;9.33;7.67;;;;;24.03;30.54;101928.34;4976139;28;45282;-72
2023/05/24 08:23:09;;;;;;;;;8.00;7.00;;;;;24.49;30.09;101928.47;4971733;28;45460;-73
2023/05/24 08:25:35;;;;;;;;;7.00;6.33;;;;;24.35;28.87;101852.53;4973244;28;45457;-72
2023/05/24 08:28:00;;;;;;;;;7.00;5.33;;;;;24.53;28.96;101867.19;4953231;28;45973;-73
2023/05/24 08:30:26;;;;;;;;;6.00;5.00;;;;;24.70;29.16;101916.56;4953285;28;45676;-73
2023/05/24 08:32:52;;;;;;;;;7.00;6.00;;;;;25.02;28.71;101931.22;4971033;28;45495;-72
2023/05/24 08:35:17;;;;;;;;;6.33;6.00;;;;;25.04;28.31;101912.81;4970980;28;45778;-73
2023/05/24 08:37:42;;;;;;;;;4.00;4.00;;;;;25.20;27.92;101895.19;4974999;28;46068;-75
2023/05/24 08:40:11;;;;;;;;;6.33;5.67;;;;;25.17;27.52;101923.66;4972562;28;45505;-74
2023/05/24 08:42:38;;;;;;;;;7.00;4.67;;;;;25.10;27.30;101906.53;4975530;28;45492;-72
2023/05/24 08:45:10;;;;;;;;;6.00;5.00;;;;;24.83;27.71;101921.19;4973607;28;45476;-72
2023/05/24 08:47:37;;;;;;;;;6.33;5.67;;;;;24.72;26.41;101878.28;4962112;28;45495;-72
2023/05/24 08:50:03;;;;;;;;;4.67;4.00;;;;;24.91;25.91;101882.88;4959836;28;45320;-73
2023/05/24 08:52:31;;;;;;;;;6.67;5.00;;;;;25.31;26.53;101912.75;4973615;28;45819;-78
2023/05/24 08:55:00;;;;;;;;;3.33;3.33;;;;;25.58;25.94;101903.47;4974753;28;46155;-76
2023/05/24 08:57:26;;;;;;;;;4.67;3.00;;;;;25.91;23.81;101910.69;4984014;28;45578;-73
2023/05/24 08:59:55;;;;;;;;;3.33;3.00;;;;;25.58;24.54;101834.53;4994385;28;45320;-71
2023/05/24 09:02:22;;;;;;;;;6.33;6.33;;;;;26.04;24.34;101907.91;4983018;28;45932;-73
2023/05/24 09:04:49;;;;;;;;;2.75;2.50;;;;;26.37;24.29;101916.72;4985635;28;45353;-71
2023/05/24 09:07:23;;;;;;;;;3.33;3.00;;;;;26.65;23.04;101889.06;4985572;28;45506;-73
2023/05/24 09:10:00;;;;;;;;;4.00;3.00;;;;;27.14;21.64;101908.34;4982676;28;45409;-72
2023/05/24 09:12:28;;;;;;;;;3.67;3.67;;;;;27.34;21.65;101884.41;4975953;28;45811;-74
2023/05/24 09:14:54;;;;;;;;;2.33;2.33;;;;;27.77;22.12;101910.81;4984785;28;45505;-72
2023/05/24 09:17:21;;;;;;;;;3.00;3.00;;;;;27.95;21.07;101867.03;4983725;28;45387;-74
2023/05/24 09:19:51;;;;;;;;;3.33;2.00;;;;;28.52;20.86;101861.16;4993505;28;45451;-70
2023/05/24 09:22:19;;;;;;;;;4.75;3.25;;;;;29.15;19.66;101877.72;4992125;28;46243;-73
2023/05/24 09:24:48;;;;;;;;;1.67;1.67;;;;;28.91;19.25;101859.66;4971786;28;45412;-73
2023/05/24 09:27:15;;;;;;;;;3.00;3.00;;;;;29.65;19.70;101894.44;4973432;28;45500;-72
2023/05/24 09:29:42;;;;;;;;;8.00;5.00;;;;;30.12;18.62;101877.81;4984327;28;45645;-73
2023/05/24 09:32:08;;;;;;;;;2.25;2.00;;;;;30.43;17.68;101901.13;4975499;28;47393;-72
2023/05/24 09:34:46;;;;;;;;;2.25;2.25;;;;;30.63;17.75;101888.84;4985330;28;45525;-71
2023/05/24 09:37:17;;;;;;;;;3.33;1.67;;;;;31.05;17.07;101898.31;4973769;28;45468;-73
2023/05/24 09:39:44;;;;;;;;;2.33;2.33;;;;;31.44;16.73;101876.34;4967006;28;45541;-71
2023/05/24 09:42:25;;;;;;;;;4.00;2.00;;;;;31.76;16.58;101898.47;4981029;28;46401;-74
2023/05/24 09:45:03;;;;;;;;;2.33;2.33;;;;;31.56;16.93;101885.28;4984871;28;45720;-72
2023/05/24 09:47:30;;;;;;;;;3.00;3.00;;;;;31.24;16.69;101868.66;4974301;28;45643;-72
2023/05/24 09:49:56;;;;;;;;;2.00;2.00;;;;;30.66;17.57;101841.72;4976185;28;45314;-71
2023/05/24 09:52:21;;;;;;;;;4.00;4.00;;;;;30.59;17.11;101848.16;4983900;28;45879;-71
2023/05/24 09:54:47;;;;;;;;;4.00;4.00;;;;;30.51;17.02;101898.00;4968120;28;45443;-72
2023/05/24 09:57:16;;;;;;;;;3.00;3.00;;;;;29.97;17.21;101896.69;4979044;28;45334;-71
2023/05/24 09:59:41;;;;;;;;;3.67;3.67;;;;;29.77;17.67;101899.88;4993926;28;45518;-70
2023/05/24 10:02:09;;;;;;;;;2.00;2.00;;;;;28.97;19.02;101886.06;4987824;28;45374;-73
2023/05/24 10:04:35;;;;;;;;;1.33;1.33;;;;;28.25;19.05;101896.28;4967080;28;45524;-74
2023/05/24 10:07:01;;;;;;;;;5.67;2.67;;;;;27.45;19.80;101872.72;4984798;28;45404;-73
2023/05/24 10:09:32;;;;;;;;;2.00;2.00;;;;;26.90;19.95;101891.75;4981995;28;45375;-75
2023/05/24 10:12:05;;;;;;;;;3.00;1.00;;;;;25.97;20.61;101819.91;4982819;28;45524;-69
2023/05/24 10:14:32;;;;;;;;;3.00;2.00;;;;;25.43;21.02;101894.75;4954656;28;45473;-68
2023/05/24 10:17:03;;;;;;;;;3.33;3.33;;;;;24.40;21.79;101886.22;4973430;28;45524;-73
2023/05/24 10:19:29;;;;;;;;;3.00;3.00;;;;;23.66;23.07;101886.22;4978223;28;45375;-69
2023/05/24 10:21:56;;;;;;;;;3.67;2.00;;;;;23.17;23.63;101873.59;4986767;28;47327;-70
2023/05/24 10:24:25;;;;;;;;;2.67;2.67;;;;;22.54;23.47;101802.22;4980178;28;45440;-69
2023/05/24 10:26:52;;;;;;;;;1.67;1.67;;;;;22.60;23.74;101890.88;4976804;28;45338;-70
2023/05/24 10:29:31;;;;;;;;;3.00;3.00;;;;;22.03;24.59;101843.03;4980184;28;45484;-70
2023/05/24 10:31:57;;;;;;;;;4.33;3.00;;;;;21.93;24.97;101863.31;4981786;28;45575;-68
2023/05/24 10:34:26;;;;;;;;;2.00;2.00;;;;;21.62;25.33;101874.38;4979878;28;45371;-71
2023/05/24 10:36:52;;;;;;;;;5.00;4.00;;;;;21.25;25.84;101849.16;4982897;28;45429;-70
2023/05/24 10:39:21;;;;;;;;;2.67;2.67;;;;;20.70;26.38;101799.03;4980883;28;45425;-69
2023/05/24 10:41:46;;;;;;;;;2.67;1.67;;;;;21.04;26.10;101878.78;4988781;28;45816;-70
2023/05/24 10:44:17;;;;;;;;;4.00;4.00;;;;;20.72;26.40;101850.19;4989150;28;45588;-70
2023/05/24 10:47:21;;;;;;;;;1.33;1.33;;;;;20.72;26.96;101875.34;4996742;28;45243;-70
2023/05/24 10:49:50;;;;;;;;;9.67;4.33;;;;;20.61;27.17;101875.78;4977219;28;45377;-69
2023/05/24 10:52:16;;;;;;;;;1.33;1.33;;;;;19.98;27.59;101801.31;4973563;28;47422;-70
2023/05/24 10:55:00;;;;;;;;;4.67;3.33;;;;;20.45;27.85;101881.34;4980864;28;45286;-69
2023/05/24 10:57:26;;;;;;;;;6.67;3.33;;;;;20.34;27.36;101879.88;4962687;28;45389;-69
2023/05/24 10:59:55;;;;;;;;;5.67;4.33;;;;;20.22;27.39;101874.06;4973536;28;45451;-73
2023/05/24 11:02:21;;;;;;;;;3.67;3.33;;;;;19.58;26.98;101787.06;4972729;28;45749;-70
2023/05/24 11:04:49;;;;;;;;;2.00;1.00;;;;;19.69;27.04;101819.06;4972192;28;45366;-71
2023/05/24 11:07:15;;;;;;;;;6.00;3.33;;;;;19.68;27.12;101846.22;4978833;28;45458;-70
2023/05/24 11:09:51;;;;;;;;;0.67;0.67;;;;;19.64;27.37;101851.13;4991209;28;45286;-68
2023/05/24 11:12:19;;;;;;;;;3.00;3.00;;;;;19.55;27.84;101854.88;4959977;28;47425;-70
2023/05/24 11:14:50;;;;;;;;;2.00;2.00;;;;;19.54;28.25;101865.84;4992169;28;45249;-69
2023/05/24 11:17:15;;;;;;;;;4.67;4.33;;;;;19.43;28.42;101858.97;4984610;28;45389;-69
2023/05/24 11:19:46;;;;;;;;;5.33;4.33;;;;;19.51;28.68;101864.31;4952625;28;46050;-68
2023/05/24 11:22:15;;;;;;;;;4.00;4.00;;;;;19.32;28.86;101822.41;4982720;28;45698;-69
2023/05/24 11:24:41;;;;;;;;;4.00;4.00;;;;;19.65;29.05;101869.00;4967178;28;45565;-67